createdAt,value
2023-01-07T00:01:12.605Z,0.63
2023-01-07T00:03:40.259Z,0.88
2023-01-07T00:06:08.623Z,0.80
2023-01-07T00:08:38.850Z,0.68
2023-01-07T00:11:08.275Z,0.70
2023-01-07T00:13:35.673Z,0.70
2023-01-07T00:16:08.698Z,0.85
2023-01-07T00:18:36.489Z,0.55
2023-01-07T00:21:06.420Z,0.73
2023-01-07T00:23:34.890Z,0.95
2023-01-07T00:26:16.655Z,0.90
2023-01-07T00:28:45.571Z,0.68
2023-01-07T00:31:17.454Z,0.63
2023-01-07T00:33:54.356Z,0.60
2023-01-07T00:36:23.045Z,0.80
2023-01-07T00:39:00.002Z,0.90
2023-01-07T00:41:27.731Z,1.15
2023-01-07T00:43:55.008Z,0.93
2023-01-07T00:46:22.463Z,0.57
2023-01-07T00:48:49.670Z,0.80
2023-01-07T00:51:17.873Z,0.75
2023-01-07T00:53:44.870Z,0.68
2023-01-07T00:56:13.981Z,0.68
2023-01-07T01:01:07.798Z,0.60
2023-01-07T01:03:34.701Z,0.98
2023-01-07T01:06:08.303Z,0.57
2023-01-07T01:08:35.078Z,0.65
2023-01-07T01:11:06.899Z,0.70
2023-01-07T01:13:34.923Z,0.80
2023-01-07T01:16:02.054Z,0.82
2023-01-07T01:18:28.881Z,0.65
2023-01-07T01:20:55.671Z,0.70
2023-01-07T01:23:22.485Z,0.60
2023-01-07T01:25:49.371Z,0.50
2023-01-07T01:28:16.204Z,0.60
2023-01-07T01:30:42.836Z,0.85
2023-01-07T01:33:11.185Z,0.65
2023-01-07T01:35:41.756Z,0.65
2023-01-07T01:38:09.144Z,0.70
2023-01-07T01:40:35.966Z,0.60
2023-01-07T01:43:04.617Z,0.77
2023-01-07T01:45:32.102Z,0.50
2023-01-07T01:48:09.997Z,0.70
2023-01-07T01:50:45.727Z,0.85
2023-01-07T01:53:21.691Z,0.70
2023-01-07T01:56:03.341Z,0.70
2023-01-07T01:58:36.156Z,0.60
2023-01-07T02:01:03.989Z,0.70
2023-01-07T02:03:34.432Z,0.82
2023-01-07T02:06:02.135Z,0.57
2023-01-07T02:08:28.846Z,0.60
2023-01-07T02:11:19.567Z,0.60
2023-01-07T02:13:55.332Z,0.60
2023-01-07T02:16:32.753Z,0.65
2023-01-07T02:19:18.159Z,0.75
2023-01-07T02:21:51.430Z,0.55
2023-01-07T02:24:56.595Z,0.60
2023-01-07T02:28:01.273Z,0.60
2023-01-07T02:30:56.380Z,0.50
2023-01-07T02:33:39.804Z,0.65
2023-01-07T02:36:19.635Z,0.60
2023-01-07T02:39:40.820Z,0.60
2023-01-07T02:42:12.849Z,0.70
2023-01-07T03:05:07.857Z,0.68
2023-01-07T03:08:11.921Z,0.70
2023-01-07T03:10:59.741Z,0.60
2023-01-07T03:13:45.917Z,0.60
2023-01-07T03:16:21.861Z,0.60
2023-01-07T03:18:59.324Z,0.50
2023-01-07T03:21:32.157Z,0.85
2023-01-07T03:24:01.479Z,0.77
2023-01-07T03:26:37.521Z,0.60
2023-01-07T03:29:07.672Z,0.90
2023-01-07T03:31:37.678Z,0.60
2023-01-07T03:34:08.947Z,0.70
2023-01-07T03:36:53.087Z,0.82
2023-01-07T03:39:23.504Z,0.90
2023-01-07T03:42:10.318Z,0.40
2023-01-07T03:44:37.674Z,0.60
2023-01-07T03:47:06.892Z,0.90
2023-01-07T03:49:35.067Z,0.95
2023-01-07T03:52:02.500Z,0.70
2023-01-07T03:54:29.257Z,0.70
2023-01-07T03:56:56.216Z,0.80
2023-01-07T03:59:23.186Z,0.60
2023-01-07T04:01:50.408Z,0.55
2023-01-07T04:04:17.538Z,0.63
2023-01-07T04:06:44.521Z,0.82
2023-01-07T04:09:12.305Z,0.63
2023-01-07T04:11:39.072Z,0.55
2023-01-07T04:14:05.866Z,0.50
2023-01-07T04:16:33.557Z,0.45
2023-01-07T04:19:00.741Z,0.60
2023-01-07T04:21:27.616Z,0.50
2023-01-07T04:23:54.375Z,1.02
2023-01-07T04:26:21.396Z,0.63
2023-01-07T04:28:48.231Z,0.70
2023-01-07T04:31:15.319Z,0.50
2023-01-07T04:33:42.169Z,0.60
2023-01-07T04:36:10.034Z,0.77
2023-01-07T04:38:37.313Z,0.60
2023-01-07T04:41:04.630Z,0.80
2023-01-07T04:43:31.815Z,0.80
2023-01-07T04:45:58.384Z,0.80
2023-01-07T04:48:25.276Z,0.70
2023-01-07T04:50:53.989Z,0.90
2023-01-07T04:53:20.785Z,0.73
2023-01-07T04:55:48.976Z,1.17
2023-01-07T04:58:16.329Z,0.90
2023-01-07T05:00:43.107Z,0.70
2023-01-07T05:03:10.888Z,0.90
2023-01-07T05:05:37.773Z,0.80
2023-01-07T05:08:05.256Z,1.00
2023-01-07T05:10:32.989Z,0.93
2023-01-07T05:13:00.911Z,0.88
2023-01-07T05:15:27.559Z,0.68
2023-01-07T05:17:55.520Z,0.80
2023-01-07T05:20:24.439Z,0.70
2023-01-07T05:22:51.370Z,0.82
2023-01-07T05:25:19.055Z,0.77
2023-01-07T05:27:46.002Z,0.80
2023-01-07T05:30:13.250Z,0.63
2023-01-07T05:32:40.095Z,0.85
2023-01-07T05:35:07.180Z,0.80
2023-01-07T05:37:34.146Z,0.82
2023-01-07T05:40:01.731Z,0.90
2023-01-07T05:42:29.140Z,0.60
2023-01-07T05:44:55.987Z,0.68
2023-01-07T05:47:22.650Z,1.10
2023-01-07T05:49:49.474Z,0.90
2023-01-07T05:52:16.129Z,0.63
2023-01-07T05:54:42.841Z,0.85
2023-01-07T05:57:09.676Z,0.90
2023-01-07T05:59:36.474Z,0.60
2023-01-07T06:02:03.509Z,0.85
2023-01-07T06:04:30.423Z,1.20
2023-01-07T06:06:57.349Z,0.70
2023-01-07T06:09:24.131Z,0.88
2023-01-07T06:11:50.975Z,0.93
2023-01-07T06:14:17.754Z,0.82
2023-01-07T06:16:44.403Z,0.82
2023-01-07T06:19:11.630Z,0.93
2023-01-07T06:21:39.066Z,0.80
2023-01-07T06:24:06.591Z,0.90
2023-01-07T06:26:33.305Z,0.98
2023-01-07T06:29:00.230Z,0.98
2023-01-07T06:31:27.084Z,0.90
2023-01-07T06:33:53.879Z,0.70
2023-01-07T06:36:20.525Z,0.80
2023-01-07T06:38:47.457Z,0.80
2023-01-07T06:41:14.304Z,0.95
2023-01-07T06:43:41.025Z,0.80
2023-01-07T06:46:07.909Z,0.88
2023-01-07T06:48:34.798Z,0.80
2023-01-07T06:51:01.650Z,0.80
2023-01-07T06:53:28.917Z,0.70
2023-01-07T06:55:55.646Z,0.90
2023-01-07T06:58:22.445Z,0.98
2023-01-07T07:00:49.181Z,1.20
2023-01-07T07:03:16.079Z,0.95
2023-01-07T07:05:42.789Z,0.88
2023-01-07T07:08:09.551Z,0.90
2023-01-07T07:10:36.304Z,0.90
2023-01-07T07:13:03.301Z,0.75
2023-01-07T07:15:29.971Z,0.80
2023-01-07T07:17:56.621Z,0.80
2023-01-07T07:20:23.331Z,0.70
2023-01-07T07:22:50.043Z,1.05
2023-01-07T07:25:16.833Z,1.00
2023-01-07T07:27:46.847Z,0.70
2023-01-07T07:30:15.204Z,0.75
2023-01-07T07:32:42.801Z,0.88
2023-01-07T07:35:10.647Z,0.80
2023-01-07T07:37:38.148Z,0.90
2023-01-07T07:40:06.250Z,0.70
2023-01-07T07:42:32.995Z,0.60
2023-01-07T07:45:19.952Z,0.80
2023-01-07T07:47:47.229Z,0.63
2023-01-07T07:50:14.045Z,0.80
2023-01-07T07:52:40.893Z,0.65
2023-01-07T07:55:20.627Z,0.80
2023-01-07T07:57:57.274Z,0.65
2023-01-07T08:00:25.035Z,0.80
2023-01-07T08:02:51.911Z,0.57
2023-01-07T08:05:18.888Z,0.70
2023-01-07T08:07:45.782Z,0.80
2023-01-07T08:10:12.593Z,0.70
2023-01-07T08:12:39.661Z,0.60
2023-01-07T08:15:08.293Z,0.60
2023-01-07T08:17:36.519Z,0.75
2023-01-07T08:20:05.009Z,0.65
2023-01-07T08:22:33.345Z,0.60
2023-01-07T08:25:00.572Z,0.50
2023-01-07T08:27:27.898Z,0.70
2023-01-07T08:29:55.633Z,0.70
2023-01-07T08:32:22.272Z,0.75
2023-01-07T08:34:48.936Z,0.70
2023-01-07T08:37:15.629Z,0.70
2023-01-07T08:39:42.301Z,0.60
2023-01-07T08:42:08.943Z,0.70
2023-01-07T08:44:35.828Z,0.77
2023-01-07T08:47:02.830Z,0.95
2023-01-07T08:49:29.758Z,0.90
2023-01-07T08:51:56.558Z,0.60
2023-01-07T08:54:23.343Z,0.60
2023-01-07T08:56:50.060Z,0.60
2023-01-07T08:59:16.881Z,0.70
2023-01-07T09:01:43.903Z,0.88
2023-01-07T09:04:10.850Z,0.80
2023-01-07T09:06:37.693Z,0.80
2023-01-07T09:09:04.768Z,1.08
2023-01-07T09:11:31.413Z,1.17
2023-01-07T09:13:58.172Z,0.80
2023-01-07T09:16:24.945Z,0.90
2023-01-07T09:18:51.682Z,1.08
2023-01-07T09:21:18.401Z,1.08
2023-01-07T09:23:45.106Z,1.17
2023-01-07T09:26:11.735Z,1.13
2023-01-07T09:28:38.413Z,1.02
2023-01-07T09:31:05.593Z,1.10
2023-01-07T09:33:32.699Z,1.40
2023-01-07T09:35:59.580Z,1.58
2023-01-07T09:38:26.371Z,1.45
2023-01-07T09:40:53.472Z,1.30
2023-01-07T09:43:59.692Z,1.55
2023-01-07T09:46:28.462Z,1.45
2023-01-07T09:48:59.910Z,1.40
2023-01-07T09:51:54.470Z,1.35
2023-01-07T09:54:36.836Z,1.30
2023-01-07T09:57:04.658Z,1.42
2023-01-07T09:59:31.814Z,1.40
2023-01-07T10:02:20.021Z,1.40
2023-01-07T10:05:17.036Z,1.38
2023-01-07T10:07:54.075Z,1.20
2023-01-07T10:10:44.873Z,1.40
2023-01-07T10:13:11.800Z,1.40
2023-01-07T10:16:07.480Z,1.50
2023-01-07T10:19:01.590Z,1.13
2023-01-07T10:21:52.237Z,1.55
2023-01-07T10:24:41.726Z,1.30
2023-01-07T10:27:13.713Z,1.52
2023-01-07T10:29:54.641Z,1.20
2023-01-07T10:32:24.407Z,1.38
2023-01-07T10:34:56.690Z,1.30
2023-01-07T10:37:28.592Z,1.10
2023-01-07T10:40:01.186Z,1.10
2023-01-07T10:42:56.694Z,1.20
2023-01-07T10:45:41.680Z,1.02
2023-01-07T10:48:21.431Z,1.30
2023-01-07T10:51:03.138Z,1.10
2023-01-07T10:54:00.077Z,1.20
2023-01-07T10:56:32.283Z,1.30
2023-01-07T10:59:04.366Z,1.27
2023-01-07T11:01:37.269Z,1.05
2023-01-07T11:04:11.443Z,1.30
2023-01-07T11:06:41.270Z,1.30
2023-01-07T11:09:13.884Z,1.23
2023-01-07T11:11:42.260Z,1.00
2023-01-07T11:14:19.860Z,1.10
2023-01-07T11:16:51.668Z,1.30
2023-01-07T11:19:18.467Z,1.27
2023-01-07T11:21:48.742Z,1.17
2023-01-07T11:24:35.627Z,1.10
2023-01-07T11:27:14.500Z,1.10
2023-01-07T11:29:46.550Z,1.10
2023-01-07T11:32:28.527Z,1.00
2023-01-07T11:35:06.375Z,1.15
2023-01-07T11:37:38.970Z,1.10
2023-01-07T11:40:14.886Z,1.20
2023-01-07T11:42:53.912Z,1.10
2023-01-07T11:45:24.827Z,1.10
2023-01-07T11:48:18.862Z,1.40
2023-01-07T11:50:54.110Z,1.20
2023-01-07T11:53:41.281Z,0.90
2023-01-07T11:56:12.041Z,1.23
2023-01-07T11:59:15.663Z,1.00
2023-01-07T12:01:44.283Z,1.10
2023-01-07T12:04:25.638Z,1.20
2023-01-07T12:06:56.094Z,1.02
2023-01-07T12:09:31.950Z,0.80
2023-01-07T12:12:07.214Z,0.90
2023-01-07T12:14:37.192Z,1.08
2023-01-07T12:17:24.880Z,0.93
2023-01-07T12:19:51.467Z,1.20
2023-01-07T12:22:33.263Z,0.90
2023-01-07T12:25:14.667Z,0.80
2023-01-07T12:28:06.779Z,1.10
2023-01-07T12:31:00.145Z,1.00
2023-01-07T12:33:36.404Z,1.20
2023-01-07T12:36:16.044Z,0.95
2023-01-07T12:38:50.616Z,0.88
2023-01-07T12:41:27.311Z,1.00
2023-01-07T12:44:12.983Z,1.00
2023-01-07T12:46:50.477Z,1.00
2023-01-07T12:49:25.530Z,1.00
2023-01-07T12:52:01.119Z,0.88
2023-01-07T12:54:58.096Z,1.00
2023-01-07T12:57:34.318Z,1.30
2023-01-07T13:00:09.990Z,0.95
2023-01-07T13:02:48.340Z,0.93
2023-01-07T13:05:42.701Z,1.10
2023-01-07T13:08:46.257Z,1.00
2023-01-07T13:11:41.704Z,1.17
2023-01-07T13:14:36.331Z,0.90
2023-01-07T13:17:30.831Z,1.30
2023-01-07T13:19:57.832Z,1.00
2023-01-07T13:22:50.856Z,0.98
2023-01-07T13:25:26.597Z,1.00
2023-01-07T13:28:25.987Z,1.17
2023-01-07T13:31:19.958Z,1.15
2023-01-07T13:33:56.475Z,0.90
2023-01-07T13:36:58.393Z,1.05
2023-01-07T13:39:49.334Z,0.90
2023-01-07T13:42:25.217Z,0.90
2023-01-07T13:45:01.917Z,0.95
2023-01-07T13:47:41.376Z,1.00
2023-01-07T13:50:19.394Z,1.10
2023-01-07T13:52:58.439Z,0.80
2023-01-07T13:55:30.783Z,1.10
2023-01-07T13:57:57.552Z,0.82
2023-01-07T14:00:41.433Z,0.80
2023-01-07T14:03:33.002Z,0.75
2023-01-07T14:06:42.597Z,0.82
2023-01-07T14:09:13.609Z,0.90
2023-01-07T14:11:42.065Z,0.85
2023-01-07T14:14:30.335Z,1.10
2023-01-07T14:17:05.923Z,1.00
2023-01-07T14:20:03.793Z,0.80
2023-01-07T14:23:06.967Z,0.70
2023-01-07T14:29:01.545Z,0.98
2023-01-07T14:31:30.652Z,0.80
2023-01-07T14:37:02.434Z,0.88
2023-01-07T14:39:33.324Z,0.63
2023-01-07T14:45:39.281Z,0.77
2023-01-07T14:48:08.562Z,0.90
2023-01-07T14:53:33.897Z,0.90
2023-01-07T14:56:15.571Z,0.60
2023-01-07T14:58:50.745Z,0.65
2023-01-07T15:01:42.329Z,0.70
2023-01-07T15:04:53.489Z,0.68
2023-01-07T15:07:30.231Z,0.90
2023-01-07T15:10:20.705Z,0.60
2023-01-07T15:13:08.957Z,0.70
2023-01-07T15:15:58.563Z,0.70
2023-01-07T15:18:25.877Z,0.75
2023-01-07T15:21:06.552Z,0.80
2023-01-07T15:23:36.389Z,0.93
2023-01-07T15:26:17.776Z,0.80
2023-01-07T15:28:49.040Z,0.70
2023-01-07T15:31:29.058Z,0.73
2023-01-07T15:34:04.337Z,0.80
2023-01-07T15:36:45.110Z,0.70
2023-01-07T15:39:41.306Z,0.80
2023-01-07T15:42:22.255Z,0.70
2023-01-07T15:44:56.411Z,0.80
2023-01-07T15:47:41.654Z,0.73
2023-01-07T15:50:14.419Z,1.08
2023-01-07T15:52:47.447Z,0.90
2023-01-07T15:55:21.650Z,0.82
2023-01-07T15:57:49.039Z,0.95
2023-01-07T16:00:16.059Z,0.90
2023-01-07T16:02:44.054Z,1.00
2023-01-07T16:05:10.941Z,0.70
2023-01-07T16:07:43.435Z,1.05
2023-01-07T16:10:42.635Z,0.82
2023-01-07T16:13:21.064Z,0.88
2023-01-07T16:15:54.577Z,1.00
2023-01-07T16:18:21.430Z,1.00
2023-01-07T16:21:02.648Z,1.02
2023-01-07T16:23:32.901Z,0.88
2023-01-07T16:26:28.606Z,0.88
2023-01-07T16:29:02.118Z,0.88
2023-01-07T16:31:30.605Z,1.15
2023-01-07T16:33:59.642Z,1.00
2023-01-07T16:36:40.728Z,1.08
2023-01-07T16:39:20.593Z,1.00
2023-01-07T16:41:47.591Z,0.90
2023-01-07T16:44:44.860Z,1.17
2023-01-07T16:47:19.185Z,1.20
2023-01-07T16:49:45.951Z,1.00
2023-01-07T16:52:15.478Z,1.20
2023-01-07T16:54:44.308Z,1.25
2023-01-07T16:57:10.914Z,1.08
2023-01-07T16:59:49.629Z,1.40
2023-01-07T17:02:33.294Z,1.50
2023-01-07T17:05:21.696Z,1.10
2023-01-07T17:07:53.256Z,0.90
2023-01-07T17:10:35.122Z,0.90
2023-01-07T17:13:07.377Z,1.30
2023-01-07T17:15:39.447Z,1.27
2023-01-07T17:18:12.502Z,1.10
2023-01-07T17:20:59.293Z,1.00
2023-01-07T17:23:28.917Z,0.95
2023-01-07T17:26:06.836Z,1.02
2023-01-07T17:28:55.279Z,1.20
2023-01-07T17:31:23.551Z,1.07
2023-01-07T17:33:52.000Z,1.20
2023-01-07T17:36:21.681Z,1.15
2023-01-07T17:38:48.689Z,0.90
2023-01-07T17:41:39.205Z,1.10
2023-01-07T17:44:09.307Z,1.05
2023-01-07T17:46:36.050Z,1.15
2023-01-07T17:49:02.616Z,0.95
2023-01-07T17:51:29.650Z,1.00
2023-01-07T17:54:22.254Z,1.02
2023-01-07T17:56:49.723Z,1.02
2023-01-07T17:59:21.938Z,1.30
2023-01-07T18:01:51.470Z,1.20
2023-01-07T18:04:18.353Z,1.40
2023-01-07T18:06:45.588Z,1.35
2023-01-07T18:09:13.653Z,1.45
2023-01-07T18:12:02.434Z,1.20
2023-01-07T18:14:29.164Z,1.10
2023-01-07T18:16:55.914Z,1.42
2023-01-07T18:19:22.551Z,1.60
2023-01-07T18:21:49.398Z,1.35
2023-01-07T18:24:19.673Z,1.30
2023-01-07T18:26:46.783Z,1.30
2023-01-07T18:29:14.059Z,1.50
2023-01-07T18:31:43.708Z,1.40
2023-01-07T18:34:12.395Z,1.30
2023-01-07T18:36:39.629Z,1.50
2023-01-07T18:39:09.086Z,1.63
2023-01-07T18:41:38.987Z,1.35
2023-01-07T18:44:05.822Z,1.75
2023-01-07T18:46:32.833Z,1.58
2023-01-07T18:49:00.016Z,1.70
2023-01-07T18:51:26.969Z,1.40
2023-01-07T18:53:53.764Z,1.45
2023-01-07T18:56:20.631Z,1.23
2023-01-07T18:59:05.687Z,1.50
2023-01-07T19:01:33.006Z,1.20
2023-01-07T19:03:59.946Z,1.50
2023-01-07T19:06:26.785Z,1.25
2023-01-07T19:08:55.364Z,1.52
2023-01-07T19:11:22.007Z,1.20
2023-01-07T19:13:48.900Z,1.40
2023-01-07T19:16:15.795Z,1.35
2023-01-07T19:18:42.701Z,1.35
2023-01-07T19:21:11.644Z,1.52
2023-01-07T19:23:38.967Z,1.20
2023-01-07T19:26:09.461Z,1.60
2023-01-07T19:28:36.232Z,1.50
2023-01-07T19:31:07.911Z,1.20
2023-01-07T19:33:35.260Z,1.50
2023-01-07T19:36:09.054Z,1.38
2023-01-07T19:38:43.509Z,1.50
2023-01-07T19:41:12.946Z,1.30
2023-01-07T19:43:39.676Z,1.58
2023-01-07T19:46:08.069Z,1.48
2023-01-07T19:48:34.771Z,1.30
2023-01-07T19:51:03.844Z,1.10
2023-01-07T19:53:31.665Z,1.40
2023-01-07T19:56:03.178Z,1.40
2023-01-07T19:58:29.837Z,1.40
2023-01-07T20:01:02.209Z,1.30
2023-01-07T20:03:31.442Z,1.40
2023-01-07T20:08:33.854Z,1.40
2023-01-07T20:11:00.901Z,1.40
2023-01-07T20:13:29.221Z,1.40
2023-01-07T20:15:56.171Z,1.20
2023-01-07T20:18:23.282Z,1.33
2023-01-07T20:20:57.731Z,1.20
2023-01-07T20:23:24.908Z,1.20
2023-01-07T20:25:51.691Z,1.42
2023-01-07T20:28:18.740Z,1.13
2023-01-07T20:30:45.702Z,1.30
2023-01-07T20:33:12.368Z,1.40
2023-01-07T20:35:39.733Z,1.20
2023-01-07T20:38:09.376Z,1.17
2023-01-07T20:40:42.445Z,1.33
2023-01-07T20:43:09.777Z,1.30
2023-01-07T20:45:38.383Z,1.20
2023-01-07T20:48:05.541Z,1.42
2023-01-07T20:50:35.604Z,1.23
2023-01-07T20:53:02.401Z,1.30
2023-01-07T20:55:29.098Z,1.52
2023-01-07T20:57:55.808Z,1.10
2023-01-07T21:00:22.499Z,1.10
2023-01-07T21:03:07.962Z,1.10
2023-01-07T21:05:37.298Z,1.15
2023-01-07T21:10:30.519Z,1.23
2023-01-07T21:12:57.193Z,1.15
2023-01-07T21:15:23.931Z,1.20
2023-01-07T21:17:53.803Z,1.20
2023-01-07T21:20:20.468Z,1.30
2023-01-07T21:22:48.145Z,1.25
2023-01-07T21:25:16.081Z,1.30
2023-01-07T21:27:43.174Z,1.55
2023-01-07T21:30:16.445Z,1.20
2023-01-07T21:32:43.615Z,1.30
2023-01-07T21:35:12.105Z,1.25
2023-01-07T21:37:39.385Z,1.30
2023-01-07T21:40:07.401Z,1.30
2023-01-07T21:42:37.024Z,1.10
2023-01-07T21:45:04.611Z,1.10
2023-01-07T21:47:31.906Z,1.33
2023-01-07T21:49:59.460Z,1.08
2023-01-07T21:52:26.169Z,1.35
2023-01-07T21:54:52.877Z,1.20
2023-01-07T21:57:20.279Z,1.13
2023-01-07T21:59:46.992Z,1.10
2023-01-07T22:02:13.844Z,1.00
2023-01-07T22:04:40.877Z,1.13
2023-01-07T22:07:13.393Z,1.00
2023-01-07T22:09:40.189Z,1.13
2023-01-07T22:12:07.209Z,0.95
2023-01-07T22:14:34.091Z,1.10
2023-01-07T22:17:00.929Z,1.38
2023-01-07T22:19:28.540Z,1.10
2023-01-07T22:21:55.359Z,1.00
2023-01-07T22:24:21.984Z,1.83
2023-01-07T22:26:48.715Z,1.00
2023-01-07T22:29:16.362Z,1.20
2023-01-07T22:31:43.512Z,1.10
2023-01-07T22:34:10.289Z,1.10
2023-01-07T22:36:56.530Z,1.10
2023-01-07T22:39:46.153Z,1.02
2023-01-07T22:42:20.989Z,1.08
2023-01-07T22:44:53.460Z,1.13
2023-01-07T22:47:25.151Z,0.95
2023-01-07T22:49:53.651Z,1.55
2023-01-07T22:52:20.905Z,1.00
2023-01-07T22:54:47.769Z,1.00
2023-01-07T22:57:14.673Z,1.25
2023-01-07T22:59:41.541Z,1.00
2023-01-07T23:02:08.334Z,0.98
2023-01-07T23:04:35.099Z,1.02
2023-01-07T23:07:02.036Z,0.80
2023-01-07T23:09:28.891Z,1.08
2023-01-07T23:11:59.561Z,0.90
2023-01-07T23:14:29.072Z,1.20
2023-01-07T23:16:56.601Z,0.80
2023-01-07T23:19:23.467Z,1.05
2023-01-07T23:21:52.371Z,0.90
2023-01-07T23:24:19.561Z,0.82
2023-01-07T23:26:48.311Z,0.68
2023-01-07T23:29:15.837Z,0.90
2023-01-07T23:31:42.639Z,0.88
2023-01-07T23:34:09.767Z,0.80
2023-01-07T23:36:37.375Z,1.00
2023-01-07T23:39:05.268Z,0.85
2023-01-07T23:41:32.812Z,1.00
2023-01-07T23:43:59.423Z,1.00
2023-01-07T23:46:26.111Z,0.77
2023-01-07T23:48:52.793Z,1.10
2023-01-07T23:51:21.013Z,0.90
2023-01-07T23:53:48.193Z,0.77
2023-01-07T23:56:18.468Z,0.93
2023-01-07T23:58:45.140Z,0.90
